sensor_id;sensor_type;location;lat;lon;timestamp;P1;durP1;ratioP1;P2;durP2;ratioP2
13588;SDS011;6865;52.552;13.434;2022-11-20T00:01:14;14.33;;;10.33;;
13588;SDS011;6865;52.552;13.434;2022-11-20T00:03:45;15.00;;;9.30;;
13588;SDS011;6865;52.552;13.434;2022-11-20T00:06:13;14.57;;;10.00;;
13588;SDS011;6865;52.552;13.434;2022-11-20T00:08:42;15.33;;;9.50;;
13588;SDS011;6865;52.552;13.434;2022-11-20T00:11:14;13.13;;;8.97;;
13588;SDS011;6865;52.552;13.434;2022-11-20T00:13:43;14.53;;;9.63;;
13588;SDS011;6865;52.552;13.434;2022-11-20T00:16:11;12.33;;;9.10;;
13588;SDS011;6865;52.552;13.434;2022-11-20T00:18:40;16.93;;;10.23;;
13588;SDS011;6865;52.552;13.434;2022-11-20T00:21:12;13.33;;;9.43;;
13588;SDS011;6865;52.552;13.434;2022-11-20T00:23:50;15.90;;;9.70;;
13588;SDS011;6865;52.552;13.434;2022-11-20T00:26:20;14.87;;;9.33;;
13588;SDS011;6865;52.552;13.434;2022-11-20T00:28:52;13.33;;;9.10;;
13588;SDS011;6865;52.552;13.434;2022-11-20T00:31:20;14.20;;;9.23;;
13588;SDS011;6865;52.552;13.434;2022-11-20T00:33:47;13.27;;;9.20;;
13588;SDS011;6865;52.552;13.434;2022-11-20T00:36:14;14.47;;;9.23;;
13588;SDS011;6865;52.552;13.434;2022-11-20T00:38:43;15.53;;;9.50;;
13588;SDS011;6865;52.552;13.434;2022-11-20T00:41:12;14.20;;;9.80;;
13588;SDS011;6865;52.552;13.434;2022-11-20T00:43:40;13.43;;;9.57;;
13588;SDS011;6865;52.552;13.434;2022-11-20T00:46:09;14.60;;;10.03;;
13588;SDS011;6865;52.552;13.434;2022-11-20T00:48:38;16.50;;;10.33;;
13588;SDS011;6865;52.552;13.434;2022-11-20T00:51:04;15.53;;;10.23;;
13588;SDS011;6865;52.552;13.434;2022-11-20T00:53:31;16.87;;;10.43;;
13588;SDS011;6865;52.552;13.434;2022-11-20T00:55:59;16.47;;;10.63;;
13588;SDS011;6865;52.552;13.434;2022-11-20T00:58:31;15.73;;;9.83;;
13588;SDS011;6865;52.552;13.434;2022-11-20T01:01:01;13.57;;;9.30;;
13588;SDS011;6865;52.552;13.434;2022-11-20T01:03:33;15.23;;;9.47;;
13588;SDS011;6865;52.552;13.434;2022-11-20T01:06:04;13.40;;;9.93;;
13588;SDS011;6865;52.552;13.434;2022-11-20T01:08:33;16.30;;;10.40;;
13588;SDS011;6865;52.552;13.434;2022-11-20T01:11:01;13.83;;;10.07;;
13588;SDS011;6865;52.552;13.434;2022-11-20T01:13:29;13.67;;;9.80;;
13588;SDS011;6865;52.552;13.434;2022-11-20T01:16:10;15.90;;;10.37;;
13588;SDS011;6865;52.552;13.434;2022-11-20T01:18:43;14.80;;;10.17;;
13588;SDS011;6865;52.552;13.434;2022-11-20T01:21:12;16.00;;;10.23;;
13588;SDS011;6865;52.552;13.434;2022-11-20T01:23:43;15.20;;;10.27;;
13588;SDS011;6865;52.552;13.434;2022-11-20T01:26:11;15.50;;;10.40;;
13588;SDS011;6865;52.552;13.434;2022-11-20T01:28:40;14.77;;;10.23;;
13588;SDS011;6865;52.552;13.434;2022-11-20T01:31:11;16.63;;;10.53;;
13588;SDS011;6865;52.552;13.434;2022-11-20T01:33:40;13.77;;;9.10;;
13588;SDS011;6865;52.552;13.434;2022-11-20T01:36:07;15.07;;;9.97;;
13588;SDS011;6865;52.552;13.434;2022-11-20T01:38:35;18.27;;;9.90;;
13588;SDS011;6865;52.552;13.434;2022-11-20T01:41:02;15.17;;;9.60;;
13588;SDS011;6865;52.552;13.434;2022-11-20T01:43:29;14.13;;;9.50;;
13588;SDS011;6865;52.552;13.434;2022-11-20T01:46:15;17.07;;;10.63;;
13588;SDS011;6865;52.552;13.434;2022-11-20T01:51:32;16.73;;;10.73;;
13588;SDS011;6865;52.552;13.434;2022-11-20T01:54:06;16.53;;;10.13;;
13588;SDS011;6865;52.552;13.434;2022-11-20T01:56:37;18.47;;;10.50;;
13588;SDS011;6865;52.552;13.434;2022-11-20T01:59:07;14.30;;;9.93;;
13588;SDS011;6865;52.552;13.434;2022-11-20T02:01:35;16.70;;;9.70;;
13588;SDS011;6865;52.552;13.434;2022-11-20T02:04:02;14.23;;;9.27;;
13588;SDS011;6865;52.552;13.434;2022-11-20T02:06:30;14.53;;;9.90;;
13588;SDS011;6865;52.552;13.434;2022-11-20T02:09:12;15.97;;;9.23;;
13588;SDS011;6865;52.552;13.434;2022-11-20T02:11:39;13.33;;;9.10;;
13588;SDS011;6865;52.552;13.434;2022-11-20T02:14:06;14.13;;;8.97;;
13588;SDS011;6865;52.552;13.434;2022-11-20T02:16:35;11.47;;;8.60;;
13588;SDS011;6865;52.552;13.434;2022-11-20T02:19:06;13.97;;;9.73;;
13588;SDS011;6865;52.552;13.434;2022-11-20T02:21:40;13.93;;;9.37;;
13588;SDS011;6865;52.552;13.434;2022-11-20T02:24:14;13.03;;;9.20;;
13588;SDS011;6865;52.552;13.434;2022-11-20T02:26:45;14.90;;;9.53;;
13588;SDS011;6865;52.552;13.434;2022-11-20T02:29:20;12.77;;;8.97;;
13588;SDS011;6865;52.552;13.434;2022-11-20T02:31:51;14.40;;;9.03;;
13588;SDS011;6865;52.552;13.434;2022-11-20T02:34:21;12.97;;;9.17;;
13588;SDS011;6865;52.552;13.434;2022-11-20T02:36:47;15.60;;;9.60;;
13588;SDS011;6865;52.552;13.434;2022-11-20T02:39:15;15.80;;;9.03;;
13588;SDS011;6865;52.552;13.434;2022-11-20T02:41:43;13.37;;;8.80;;
13588;SDS011;6865;52.552;13.434;2022-11-20T02:44:09;13.43;;;9.63;;
13588;SDS011;6865;52.552;13.434;2022-11-20T02:46:36;14.40;;;9.57;;
13588;SDS011;6865;52.552;13.434;2022-11-20T02:49:03;12.83;;;9.47;;
13588;SDS011;6865;52.552;13.434;2022-11-20T02:51:30;15.20;;;9.87;;
13588;SDS011;6865;52.552;13.434;2022-11-20T02:53:59;15.17;;;9.27;;
13588;SDS011;6865;52.552;13.434;2022-11-20T02:56:26;13.37;;;8.87;;
13588;SDS011;6865;52.552;13.434;2022-11-20T02:58:53;13.10;;;9.43;;
13588;SDS011;6865;52.552;13.434;2022-11-20T03:01:20;15.23;;;10.13;;
13588;SDS011;6865;52.552;13.434;2022-11-20T03:03:46;14.83;;;10.27;;
13588;SDS011;6865;52.552;13.434;2022-11-20T03:06:15;15.50;;;9.83;;
13588;SDS011;6865;52.552;13.434;2022-11-20T03:08:42;15.00;;;10.40;;
13588;SDS011;6865;52.552;13.434;2022-11-20T03:11:09;15.23;;;10.43;;
13588;SDS011;6865;52.552;13.434;2022-11-20T03:13:36;14.93;;;10.83;;
13588;SDS011;6865;52.552;13.434;2022-11-20T03:16:09;14.07;;;10.17;;
13588;SDS011;6865;52.552;13.434;2022-11-20T03:18:38;13.30;;;9.90;;
13588;SDS011;6865;52.552;13.434;2022-11-20T03:21:05;15.60;;;10.47;;
13588;SDS011;6865;52.552;13.434;2022-11-20T03:23:33;15.17;;;10.97;;
13588;SDS011;6865;52.552;13.434;2022-11-20T03:26:20;15.73;;;10.57;;
13588;SDS011;6865;52.552;13.434;2022-11-20T03:28:52;15.60;;;11.07;;
13588;SDS011;6865;52.552;13.434;2022-11-20T03:31:27;15.77;;;10.33;;
13588;SDS011;6865;52.552;13.434;2022-11-20T03:33:56;15.00;;;10.50;;
13588;SDS011;6865;52.552;13.434;2022-11-20T03:36:24;16.17;;;10.30;;
13588;SDS011;6865;52.552;13.434;2022-11-20T03:38:52;16.30;;;11.37;;
13588;SDS011;6865;52.552;13.434;2022-11-20T03:41:20;19.40;;;12.27;;
13588;SDS011;6865;52.552;13.434;2022-11-20T03:43:49;22.57;;;13.77;;
13588;SDS011;6865;52.552;13.434;2022-11-20T03:46:21;18.07;;;13.20;;
13588;SDS011;6865;52.552;13.434;2022-11-20T03:48:48;21.47;;;13.10;;
13588;SDS011;6865;52.552;13.434;2022-11-20T03:51:21;18.87;;;12.23;;
13588;SDS011;6865;52.552;13.434;2022-11-20T03:53:50;19.37;;;12.87;;
13588;SDS011;6865;52.552;13.434;2022-11-20T03:56:19;19.70;;;12.10;;
13588;SDS011;6865;52.552;13.434;2022-11-20T03:58:48;19.30;;;13.07;;
13588;SDS011;6865;52.552;13.434;2022-11-20T04:01:19;18.03;;;12.83;;
13588;SDS011;6865;52.552;13.434;2022-11-20T04:03:47;18.07;;;12.33;;
13588;SDS011;6865;52.552;13.434;2022-11-20T04:06:21;18.27;;;11.93;;
13588;SDS011;6865;52.552;13.434;2022-11-20T04:08:50;14.80;;;10.67;;
13588;SDS011;6865;52.552;13.434;2022-11-20T04:11:20;15.17;;;10.37;;
13588;SDS011;6865;52.552;13.434;2022-11-20T04:13:55;14.73;;;10.10;;
13588;SDS011;6865;52.552;13.434;2022-11-20T04:16:23;13.20;;;10.20;;
13588;SDS011;6865;52.552;13.434;2022-11-20T04:18:52;15.70;;;10.77;;
13588;SDS011;6865;52.552;13.434;2022-11-20T04:21:23;15.50;;;10.33;;
13588;SDS011;6865;52.552;13.434;2022-11-20T04:23:50;16.80;;;11.03;;
13588;SDS011;6865;52.552;13.434;2022-11-20T04:26:18;13.97;;;10.57;;
13588;SDS011;6865;52.552;13.434;2022-11-20T04:28:45;13.90;;;9.83;;
13588;SDS011;6865;52.552;13.434;2022-11-20T04:31:13;14.10;;;10.77;;
13588;SDS011;6865;52.552;13.434;2022-11-20T04:33:43;15.63;;;11.00;;
13588;SDS011;6865;52.552;13.434;2022-11-20T04:36:13;14.90;;;10.33;;
13588;SDS011;6865;52.552;13.434;2022-11-20T04:38:44;14.67;;;9.93;;
13588;SDS011;6865;52.552;13.434;2022-11-20T04:41:15;15.57;;;10.07;;
13588;SDS011;6865;52.552;13.434;2022-11-20T04:43:47;18.80;;;10.10;;
13588;SDS011;6865;52.552;13.434;2022-11-20T04:46:15;14.03;;;10.20;;
13588;SDS011;6865;52.552;13.434;2022-11-20T04:48:42;15.73;;;10.70;;
13588;SDS011;6865;52.552;13.434;2022-11-20T04:51:08;13.50;;;9.67;;
13588;SDS011;6865;52.552;13.434;2022-11-20T04:53:35;16.27;;;10.37;;
13588;SDS011;6865;52.552;13.434;2022-11-20T04:56:03;17.43;;;9.60;;
13588;SDS011;6865;52.552;13.434;2022-11-20T04:58:31;13.07;;;9.33;;
13588;SDS011;6865;52.552;13.434;2022-11-20T05:01:02;15.20;;;10.43;;
13588;SDS011;6865;52.552;13.434;2022-11-20T05:03:30;14.47;;;10.13;;
13588;SDS011;6865;52.552;13.434;2022-11-20T05:06:00;14.33;;;9.90;;
13588;SDS011;6865;52.552;13.434;2022-11-20T05:08:28;14.40;;;10.53;;
13588;SDS011;6865;52.552;13.434;2022-11-20T05:13:28;16.00;;;10.80;;
13588;SDS011;6865;52.552;13.434;2022-11-20T05:15:55;15.30;;;10.23;;
13588;SDS011;6865;52.552;13.434;2022-11-20T05:18:21;13.73;;;10.23;;
13588;SDS011;6865;52.552;13.434;2022-11-20T05:20:54;14.90;;;10.03;;
13588;SDS011;6865;52.552;13.434;2022-11-20T05:23:21;15.77;;;9.97;;
13588;SDS011;6865;52.552;13.434;2022-11-20T05:25:47;17.03;;;10.77;;
13588;SDS011;6865;52.552;13.434;2022-11-20T05:28:24;15.60;;;9.87;;
13588;SDS011;6865;52.552;13.434;2022-11-20T05:30:51;17.10;;;9.87;;
13588;SDS011;6865;52.552;13.434;2022-11-20T05:33:18;13.40;;;9.97;;
13588;SDS011;6865;52.552;13.434;2022-11-20T05:35:45;16.10;;;9.90;;
13588;SDS011;6865;52.552;13.434;2022-11-20T05:38:11;14.37;;;10.23;;
13588;SDS011;6865;52.552;13.434;2022-11-20T05:40:38;16.17;;;10.53;;
13588;SDS011;6865;52.552;13.434;2022-11-20T05:43:04;15.00;;;10.20;;
13588;SDS011;6865;52.552;13.434;2022-11-20T05:45:31;14.63;;;9.67;;
13588;SDS011;6865;52.552;13.434;2022-11-20T05:47:58;15.00;;;10.13;;
13588;SDS011;6865;52.552;13.434;2022-11-20T05:50:28;13.60;;;9.67;;
13588;SDS011;6865;52.552;13.434;2022-11-20T05:52:57;15.43;;;10.27;;
13588;SDS011;6865;52.552;13.434;2022-11-20T05:55:25;13.23;;;9.43;;
13588;SDS011;6865;52.552;13.434;2022-11-20T05:57:53;15.33;;;10.20;;
13588;SDS011;6865;52.552;13.434;2022-11-20T06:00:20;15.10;;;10.53;;
13588;SDS011;6865;52.552;13.434;2022-11-20T06:02:48;15.13;;;10.20;;
13588;SDS011;6865;52.552;13.434;2022-11-20T06:05:14;12.80;;;9.20;;
13588;SDS011;6865;52.552;13.434;2022-11-20T06:07:41;15.40;;;10.50;;
13588;SDS011;6865;52.552;13.434;2022-11-20T06:10:08;15.77;;;10.30;;
13588;SDS011;6865;52.552;13.434;2022-11-20T06:12:34;14.67;;;9.73;;
13588;SDS011;6865;52.552;13.434;2022-11-20T06:15:01;15.93;;;9.83;;
13588;SDS011;6865;52.552;13.434;2022-11-20T06:17:28;15.20;;;9.87;;
13588;SDS011;6865;52.552;13.434;2022-11-20T06:19:54;14.20;;;9.90;;
13588;SDS011;6865;52.552;13.434;2022-11-20T06:22:21;13.43;;;9.57;;
13588;SDS011;6865;52.552;13.434;2022-11-20T06:24:48;13.90;;;9.80;;
13588;SDS011;6865;52.552;13.434;2022-11-20T06:27:15;13.37;;;9.13;;
13588;SDS011;6865;52.552;13.434;2022-11-20T06:29:42;14.97;;;10.23;;
13588;SDS011;6865;52.552;13.434;2022-11-20T06:32:09;14.30;;;9.60;;
13588;SDS011;6865;52.552;13.434;2022-11-20T06:34:35;12.97;;;9.47;;
13588;SDS011;6865;52.552;13.434;2022-11-20T06:37:02;15.90;;;9.67;;
13588;SDS011;6865;52.552;13.434;2022-11-20T06:39:29;13.47;;;8.47;;
13588;SDS011;6865;52.552;13.434;2022-11-20T06:41:55;13.13;;;9.50;;
13588;SDS011;6865;52.552;13.434;2022-11-20T06:44:24;13.37;;;9.23;;
13588;SDS011;6865;52.552;13.434;2022-11-20T06:46:51;13.63;;;9.30;;
13588;SDS011;6865;52.552;13.434;2022-11-20T06:49:18;15.90;;;9.90;;
13588;SDS011;6865;52.552;13.434;2022-11-20T06:51:45;13.03;;;8.87;;
13588;SDS011;6865;52.552;13.434;2022-11-20T06:54:11;14.60;;;9.53;;
13588;SDS011;6865;52.552;13.434;2022-11-20T06:56:38;15.00;;;9.27;;
13588;SDS011;6865;52.552;13.434;2022-11-20T06:59:05;13.83;;;9.43;;
13588;SDS011;6865;52.552;13.434;2022-11-20T07:01:33;15.57;;;8.80;;
13588;SDS011;6865;52.552;13.434;2022-11-20T07:04:01;13.97;;;8.87;;
13588;SDS011;6865;52.552;13.434;2022-11-20T07:06:29;11.80;;;8.87;;
13588;SDS011;6865;52.552;13.434;2022-11-20T07:08:55;13.87;;;10.07;;
13588;SDS011;6865;52.552;13.434;2022-11-20T07:11:22;13.43;;;9.37;;
13588;SDS011;6865;52.552;13.434;2022-11-20T07:13:49;15.33;;;11.23;;
13588;SDS011;6865;52.552;13.434;2022-11-20T07:16:16;14.30;;;9.77;;
13588;SDS011;6865;52.552;13.434;2022-11-20T07:18:43;13.67;;;9.97;;
13588;SDS011;6865;52.552;13.434;2022-11-20T07:21:15;13.57;;;9.40;;
13588;SDS011;6865;52.552;13.434;2022-11-20T07:23:42;14.90;;;9.20;;
13588;SDS011;6865;52.552;13.434;2022-11-20T07:26:09;13.67;;;9.47;;
13588;SDS011;6865;52.552;13.434;2022-11-20T07:28:38;14.97;;;10.30;;
13588;SDS011;6865;52.552;13.434;2022-11-20T07:31:05;14.37;;;9.77;;
13588;SDS011;6865;52.552;13.434;2022-11-20T07:33:33;15.33;;;9.73;;
13588;SDS011;6865;52.552;13.434;2022-11-20T07:36:00;15.17;;;9.97;;
13588;SDS011;6865;52.552;13.434;2022-11-20T07:38:27;13.93;;;9.33;;
13588;SDS011;6865;52.552;13.434;2022-11-20T07:40:55;12.83;;;9.03;;
13588;SDS011;6865;52.552;13.434;2022-11-20T07:43:23;14.53;;;10.37;;
13588;SDS011;6865;52.552;13.434;2022-11-20T07:45:50;14.00;;;10.00;;
13588;SDS011;6865;52.552;13.434;2022-11-20T07:48:17;14.53;;;10.20;;
13588;SDS011;6865;52.552;13.434;2022-11-20T07:50:43;13.53;;;9.43;;
13588;SDS011;6865;52.552;13.434;2022-11-20T07:53:10;15.07;;;10.07;;
13588;SDS011;6865;52.552;13.434;2022-11-20T07:55:38;13.53;;;10.20;;
13588;SDS011;6865;52.552;13.434;2022-11-20T07:58:05;13.60;;;9.83;;
13588;SDS011;6865;52.552;13.434;2022-11-20T08:00:31;15.37;;;9.80;;
13588;SDS011;6865;52.552;13.434;2022-11-20T08:02:58;16.07;;;10.10;;
13588;SDS011;6865;52.552;13.434;2022-11-20T08:05:25;13.50;;;9.77;;
13588;SDS011;6865;52.552;13.434;2022-11-20T08:07:51;12.90;;;9.97;;
13588;SDS011;6865;52.552;13.434;2022-11-20T08:10:18;14.03;;;9.67;;
13588;SDS011;6865;52.552;13.434;2022-11-20T08:12:48;15.30;;;10.13;;
13588;SDS011;6865;52.552;13.434;2022-11-20T08:15:34;17.43;;;10.37;;
13588;SDS011;6865;52.552;13.434;2022-11-20T08:18:02;12.47;;;9.57;;
13588;SDS011;6865;52.552;13.434;2022-11-20T08:20:51;13.77;;;9.83;;
13588;SDS011;6865;52.552;13.434;2022-11-20T08:23:18;13.77;;;10.10;;
13588;SDS011;6865;52.552;13.434;2022-11-20T08:25:48;16.03;;;10.67;;
13588;SDS011;6865;52.552;13.434;2022-11-20T08:28:15;16.00;;;10.70;;
13588;SDS011;6865;52.552;13.434;2022-11-20T08:30:47;15.30;;;9.73;;
13588;SDS011;6865;52.552;13.434;2022-11-20T08:33:15;17.87;;;10.10;;
13588;SDS011;6865;52.552;13.434;2022-11-20T08:35:43;17.37;;;10.67;;
13588;SDS011;6865;52.552;13.434;2022-11-20T08:38:10;14.60;;;10.23;;
13588;SDS011;6865;52.552;13.434;2022-11-20T08:40:36;14.90;;;11.03;;
13588;SDS011;6865;52.552;13.434;2022-11-20T08:43:03;14.33;;;10.37;;
13588;SDS011;6865;52.552;13.434;2022-11-20T08:45:30;15.03;;;11.17;;
13588;SDS011;6865;52.552;13.434;2022-11-20T08:48:00;15.83;;;10.27;;
13588;SDS011;6865;52.552;13.434;2022-11-20T08:50:27;17.07;;;11.20;;
13588;SDS011;6865;52.552;13.434;2022-11-20T08:52:54;16.93;;;11.33;;
13588;SDS011;6865;52.552;13.434;2022-11-20T08:55:21;17.03;;;10.90;;
13588;SDS011;6865;52.552;13.434;2022-11-20T08:57:47;17.57;;;11.23;;
13588;SDS011;6865;52.552;13.434;2022-11-20T09:00:16;16.80;;;11.23;;
13588;SDS011;6865;52.552;13.434;2022-11-20T09:02:43;17.37;;;11.93;;
13588;SDS011;6865;52.552;13.434;2022-11-20T09:05:09;18.13;;;11.77;;
13588;SDS011;6865;52.552;13.434;2022-11-20T09:07:36;17.13;;;11.37;;
13588;SDS011;6865;52.552;13.434;2022-11-20T09:10:03;16.97;;;10.90;;
13588;SDS011;6865;52.552;13.434;2022-11-20T09:12:49;17.47;;;11.50;;
13588;SDS011;6865;52.552;13.434;2022-11-20T09:15:17;19.70;;;11.30;;
13588;SDS011;6865;52.552;13.434;2022-11-20T09:17:54;16.40;;;11.13;;
13588;SDS011;6865;52.552;13.434;2022-11-20T09:20:22;13.80;;;10.50;;
13588;SDS011;6865;52.552;13.434;2022-11-20T09:22:49;14.97;;;10.60;;
13588;SDS011;6865;52.552;13.434;2022-11-20T09:25:15;15.50;;;11.13;;
13588;SDS011;6865;52.552;13.434;2022-11-20T09:27:42;15.57;;;10.33;;
13588;SDS011;6865;52.552;13.434;2022-11-20T09:30:10;18.23;;;11.30;;
13588;SDS011;6865;52.552;13.434;2022-11-20T09:32:38;17.57;;;11.13;;
13588;SDS011;6865;52.552;13.434;2022-11-20T09:35:05;18.77;;;11.63;;
13588;SDS011;6865;52.552;13.434;2022-11-20T09:37:32;16.23;;;11.13;;
13588;SDS011;6865;52.552;13.434;2022-11-20T09:39:58;15.97;;;9.93;;
13588;SDS011;6865;52.552;13.434;2022-11-20T09:48:14;15.23;;;10.00;;
13588;SDS011;6865;52.552;13.434;2022-11-20T09:51:24;15.80;;;9.80;;
13588;SDS011;6865;52.552;13.434;2022-11-20T09:54:18;15.57;;;10.10;;
13588;SDS011;6865;52.552;13.434;2022-11-20T09:56:56;14.30;;;10.00;;
13588;SDS011;6865;52.552;13.434;2022-11-20T09:59:42;14.03;;;10.03;;
13588;SDS011;6865;52.552;13.434;2022-11-20T10:02:15;16.20;;;10.50;;
13588;SDS011;6865;52.552;13.434;2022-11-20T10:04:44;14.40;;;9.63;;
13588;SDS011;6865;52.552;13.434;2022-11-20T10:08:10;14.23;;;10.13;;
13588;SDS011;6865;52.552;13.434;2022-11-20T10:10:33;14.37;;;9.57;;
13588;SDS011;6865;52.552;13.434;2022-11-20T10:13:16;14.90;;;9.87;;
13588;SDS011;6865;52.552;13.434;2022-11-20T10:25:18;13.87;;;9.27;;
13588;SDS011;6865;52.552;13.434;2022-11-20T10:27:59;14.00;;;9.80;;
13588;SDS011;6865;52.552;13.434;2022-11-20T10:30:28;13.47;;;9.43;;
13588;SDS011;6865;52.552;13.434;2022-11-20T10:33:03;13.00;;;9.93;;
13588;SDS011;6865;52.552;13.434;2022-11-20T10:35:37;12.73;;;9.47;;
13588;SDS011;6865;52.552;13.434;2022-11-20T10:38:14;14.80;;;10.20;;
13588;SDS011;6865;52.552;13.434;2022-11-20T10:40:51;13.60;;;8.57;;
13588;SDS011;6865;52.552;13.434;2022-11-20T10:43:45;15.67;;;10.33;;
13588;SDS011;6865;52.552;13.434;2022-11-20T10:46:20;13.73;;;9.90;;
13588;SDS011;6865;52.552;13.434;2022-11-20T10:48:48;16.37;;;10.10;;
13588;SDS011;6865;52.552;13.434;2022-11-20T10:51:30;14.43;;;10.03;;
13588;SDS011;6865;52.552;13.434;2022-11-20T10:54:06;16.03;;;9.80;;
13588;SDS011;6865;52.552;13.434;2022-11-20T10:56:56;12.13;;;9.07;;
13588;SDS011;6865;52.552;13.434;2022-11-20T11:00:03;14.63;;;8.93;;
13588;SDS011;6865;52.552;13.434;2022-11-20T11:02:43;13.37;;;9.77;;
13588;SDS011;6865;52.552;13.434;2022-11-20T11:05:25;12.80;;;9.43;;
13588;SDS011;6865;52.552;13.434;2022-11-20T11:08:00;14.93;;;10.27;;
13588;SDS011;6865;52.552;13.434;2022-11-20T11:10:30;13.13;;;9.40;;
13588;SDS011;6865;52.552;13.434;2022-11-20T11:13:04;14.40;;;9.00;;
13588;SDS011;6865;52.552;13.434;2022-11-20T11:15:38;12.87;;;9.27;;
13588;SDS011;6865;52.552;13.434;2022-11-20T11:18:22;13.73;;;9.73;;
13588;SDS011;6865;52.552;13.434;2022-11-20T11:20:57;11.60;;;8.17;;
13588;SDS011;6865;52.552;13.434;2022-11-20T11:23:36;12.77;;;9.23;;
13588;SDS011;6865;52.552;13.434;2022-11-20T11:26:17;13.40;;;9.33;;
13588;SDS011;6865;52.552;13.434;2022-11-20T11:28:56;13.17;;;9.20;;
13588;SDS011;6865;52.552;13.434;2022-11-20T11:31:28;13.80;;;10.17;;
13588;SDS011;6865;52.552;13.434;2022-11-20T11:34:05;15.77;;;9.70;;
13588;SDS011;6865;52.552;13.434;2022-11-20T11:36:34;12.60;;;9.13;;
13588;SDS011;6865;52.552;13.434;2022-11-20T11:39:02;13.40;;;8.70;;
13588;SDS011;6865;52.552;13.434;2022-11-20T11:41:31;14.43;;;9.63;;
13588;SDS011;6865;52.552;13.434;2022-11-20T11:44:15;12.67;;;8.93;;
13588;SDS011;6865;52.552;13.434;2022-11-20T11:47:09;13.73;;;9.53;;
13588;SDS011;6865;52.552;13.434;2022-11-20T11:49:47;13.30;;;8.10;;
13588;SDS011;6865;52.552;13.434;2022-11-20T11:52:17;12.00;;;8.77;;
13588;SDS011;6865;52.552;13.434;2022-11-20T11:54:50;11.87;;;9.00;;
13588;SDS011;6865;52.552;13.434;2022-11-20T12:00:06;11.17;;;7.97;;
13588;SDS011;6865;52.552;13.434;2022-11-20T12:02:47;14.87;;;8.87;;
13588;SDS011;6865;52.552;13.434;2022-11-20T12:05:23;12.43;;;8.87;;
13588;SDS011;6865;52.552;13.434;2022-11-20T12:08:12;13.70;;;9.33;;
13588;SDS011;6865;52.552;13.434;2022-11-20T12:16:45;10.70;;;8.10;;
13588;SDS011;6865;52.552;13.434;2022-11-20T12:19:13;11.57;;;7.87;;
13588;SDS011;6865;52.552;13.434;2022-11-20T12:21:54;11.93;;;7.90;;
13588;SDS011;6865;52.552;13.434;2022-11-20T12:24:51;12.37;;;8.00;;
13588;SDS011;6865;52.552;13.434;2022-11-20T12:30:09;11.27;;;8.33;;
13588;SDS011;6865;52.552;13.434;2022-11-20T12:32:42;11.97;;;7.83;;
13588;SDS011;6865;52.552;13.434;2022-11-20T12:35:30;12.67;;;8.23;;
13588;SDS011;6865;52.552;13.434;2022-11-20T12:41:16;11.47;;;8.40;;
13588;SDS011;6865;52.552;13.434;2022-11-20T12:44:29;11.17;;;7.90;;
13588;SDS011;6865;52.552;13.434;2022-11-20T12:47:43;12.20;;;8.43;;
13588;SDS011;6865;52.552;13.434;2022-11-20T12:50:25;11.73;;;8.00;;
13588;SDS011;6865;52.552;13.434;2022-11-20T12:56:33;9.80;;;7.10;;
13588;SDS011;6865;52.552;13.434;2022-11-20T12:59:18;9.90;;;6.83;;
13588;SDS011;6865;52.552;13.434;2022-11-20T13:01:58;10.63;;;7.17;;
13588;SDS011;6865;52.552;13.434;2022-11-20T13:04:49;8.87;;;6.67;;
13588;SDS011;6865;52.552;13.434;2022-11-20T13:07:31;9.93;;;7.37;;
13588;SDS011;6865;52.552;13.434;2022-11-20T13:10:01;9.27;;;6.20;;
13588;SDS011;6865;52.552;13.434;2022-11-20T13:12:38;9.13;;;6.17;;
13588;SDS011;6865;52.552;13.434;2022-11-20T13:15:17;9.23;;;6.43;;
13588;SDS011;6865;52.552;13.434;2022-11-20T13:18:08;8.23;;;5.70;;
13588;SDS011;6865;52.552;13.434;2022-11-20T13:20:41;7.83;;;5.60;;
13588;SDS011;6865;52.552;13.434;2022-11-20T13:23:09;9.27;;;6.53;;
13588;SDS011;6865;52.552;13.434;2022-11-20T13:25:38;8.20;;;6.50;;
13588;SDS011;6865;52.552;13.434;2022-11-20T13:30:35;8.13;;;5.83;;
13588;SDS011;6865;52.552;13.434;2022-11-20T13:33:06;11.60;;;6.93;;
13588;SDS011;6865;52.552;13.434;2022-11-20T13:35:56;11.13;;;6.07;;
13588;SDS011;6865;52.552;13.434;2022-11-20T13:38:28;10.47;;;7.03;;
13588;SDS011;6865;52.552;13.434;2022-11-20T13:41:07;8.10;;;6.20;;
13588;SDS011;6865;52.552;13.434;2022-11-20T13:43:53;10.80;;;7.27;;
13588;SDS011;6865;52.552;13.434;2022-11-20T13:46:39;11.43;;;7.00;;
13588;SDS011;6865;52.552;13.434;2022-11-20T13:49:09;8.93;;;6.93;;
13588;SDS011;6865;52.552;13.434;2022-11-20T13:51:46;12.30;;;8.07;;
13588;SDS011;6865;52.552;13.434;2022-11-20T13:54:30;10.77;;;7.80;;
13588;SDS011;6865;52.552;13.434;2022-11-20T13:57:32;11.73;;;7.27;;
13588;SDS011;6865;52.552;13.434;2022-11-20T14:00:16;11.37;;;8.53;;
13588;SDS011;6865;52.552;13.434;2022-11-20T14:02:57;13.33;;;9.13;;
13588;SDS011;6865;52.552;13.434;2022-11-20T14:05:34;12.07;;;8.93;;
13588;SDS011;6865;52.552;13.434;2022-11-20T14:08:06;11.27;;;8.10;;
13588;SDS011;6865;52.552;13.434;2022-11-20T14:10:43;11.10;;;7.80;;
13588;SDS011;6865;52.552;13.434;2022-11-20T14:13:17;11.87;;;7.90;;
13588;SDS011;6865;52.552;13.434;2022-11-20T14:15:45;9.73;;;7.67;;
13588;SDS011;6865;52.552;13.434;2022-11-20T14:18:19;11.03;;;7.90;;
13588;SDS011;6865;52.552;13.434;2022-11-20T14:20:47;10.40;;;6.93;;
13588;SDS011;6865;52.552;13.434;2022-11-20T14:23:23;11.00;;;7.17;;
13588;SDS011;6865;52.552;13.434;2022-11-20T14:25:55;10.77;;;7.10;;
13588;SDS011;6865;52.552;13.434;2022-11-20T14:28:29;11.27;;;7.23;;
13588;SDS011;6865;52.552;13.434;2022-11-20T14:30:57;9.87;;;6.77;;
13588;SDS011;6865;52.552;13.434;2022-11-20T14:33:25;11.73;;;7.57;;
13588;SDS011;6865;52.552;13.434;2022-11-20T14:35:53;11.17;;;7.83;;
13588;SDS011;6865;52.552;13.434;2022-11-20T14:38:25;11.17;;;7.33;;
13588;SDS011;6865;52.552;13.434;2022-11-20T14:41:05;8.80;;;7.10;;
13588;SDS011;6865;52.552;13.434;2022-11-20T14:43:44;11.10;;;7.27;;
13588;SDS011;6865;52.552;13.434;2022-11-20T14:46:12;12.07;;;7.57;;
13588;SDS011;6865;52.552;13.434;2022-11-20T14:48:44;10.13;;;7.90;;
13588;SDS011;6865;52.552;13.434;2022-11-20T14:51:12;9.70;;;7.13;;
13588;SDS011;6865;52.552;13.434;2022-11-20T14:54:17;12.37;;;8.27;;
13588;SDS011;6865;52.552;13.434;2022-11-20T14:56:55;11.20;;;8.10;;
13588;SDS011;6865;52.552;13.434;2022-11-20T14:59:27;10.30;;;7.47;;
13588;SDS011;6865;52.552;13.434;2022-11-20T15:02:02;14.30;;;8.77;;
13588;SDS011;6865;52.552;13.434;2022-11-20T15:04:31;11.73;;;8.60;;
13588;SDS011;6865;52.552;13.434;2022-11-20T15:06:58;12.30;;;8.43;;
13588;SDS011;6865;52.552;13.434;2022-11-20T15:09:25;13.50;;;8.70;;
13588;SDS011;6865;52.552;13.434;2022-11-20T15:14:27;13.30;;;9.00;;
13588;SDS011;6865;52.552;13.434;2022-11-20T15:16:55;13.40;;;9.23;;
13588;SDS011;6865;52.552;13.434;2022-11-20T15:19:22;13.33;;;8.80;;
13588;SDS011;6865;52.552;13.434;2022-11-20T15:21:50;13.77;;;8.50;;
13588;SDS011;6865;52.552;13.434;2022-11-20T15:24:17;13.17;;;8.77;;
13588;SDS011;6865;52.552;13.434;2022-11-20T15:26:44;12.97;;;8.83;;
13588;SDS011;6865;52.552;13.434;2022-11-20T15:29:12;13.57;;;9.03;;
13588;SDS011;6865;52.552;13.434;2022-11-20T15:31:40;12.33;;;8.17;;
13588;SDS011;6865;52.552;13.434;2022-11-20T15:34:12;12.30;;;8.47;;
13588;SDS011;6865;52.552;13.434;2022-11-20T15:36:40;13.33;;;9.13;;
13588;SDS011;6865;52.552;13.434;2022-11-20T15:39:08;14.20;;;8.60;;
13588;SDS011;6865;52.552;13.434;2022-11-20T15:41:35;12.77;;;8.70;;